Time;durP1;ratioP1;P1;durP2;ratioP2;P2;SDS_P1;SDS_P2;PMS_P1;PMS_P2;Temp;Humidity;BMP_temperature;BMP_pressure;BME280_temperature;BME280_humidity;BME280_pressure;Samples;Min_cycle;Max_cycle;Signal;HPM_P1;HPM_P2
2021/06/16 00:00:25;;;;;;;8.03;3.17;;;;;;;6.94;67.52;100056.59;1820512;77;20941;-65
2021/06/16 00:02:54;;;;;;;8.23;3.67;;;;;;;6.92;67.62;100048.02;1830263;77;20923;-65
2021/06/16 00:05:24;;;;;;;8.80;3.60;;;;;;;6.88;67.64;100051.57;1822637;77;20941;-65
2021/06/16 00:07:51;;;;;;;8.18;3.83;;;;;;;6.83;67.78;100053.44;1818586;77;21445;-65
2021/06/16 00:10:21;;;;;;;8.45;3.95;;;;;;;6.79;67.81;100054.42;1822443;77;21481;-65
2021/06/16 00:12:48;;;;;;;8.60;4.05;;;;;;;6.76;67.97;100052.36;1817183;77;21077;-65
2021/06/16 00:15:19;;;;;;;12.73;4.03;;;;;;;6.77;68.13;100052.30;1818697;77;21387;-65
2021/06/16 00:17:46;;;;;;;11.75;4.37;;;;;;;6.79;68.32;100054.42;1822839;77;21406;-65
2021/06/16 00:20:13;;;;;;;9.23;4.17;;;;;;;6.82;68.51;100056.09;1823942;77;21493;-65
2021/06/16 00:22:40;;;;;;;;;;;;;;;6.82;68.44;100058.23;1827710;77;20974;-65
2021/06/16 00:25:08;;;;;;;8.93;3.47;;;;;;;6.83;68.71;100058.63;1826179;77;20142;-65
2021/06/16 00:27:35;;;;;;;8.35;3.87;;;;;;;6.83;68.61;100052.59;1826861;77;20918;-65
2021/06/16 00:30:06;;;;;;;10.20;3.58;;;;;;;6.84;68.60;100058.20;1827587;77;20902;-65
2021/06/16 00:32:33;;;;;;;11.70;3.77;;;;;;;6.79;68.61;100057.02;1823352;77;20894;-64
2021/06/16 00:35:00;;;;;;;7.08;3.05;;;;;;;6.70;68.64;100055.97;1826618;77;21874;-65
2021/06/16 00:37:26;;;;;;;6.03;3.33;;;;;;;6.62;68.78;100063.09;1819686;77;20942;-65
2021/06/16 00:39:54;;;;;;;7.85;4.40;;;;;;;6.54;68.90;100057.25;1823476;77;21481;-65
2021/06/16 00:42:24;;;;;;;6.47;3.67;;;;;;;6.52;69.09;100052.53;1825853;77;21501;-65
2021/06/16 00:44:51;;;;;;;13.60;4.87;;;;;;;6.54;69.31;100052.06;1823946;77;22051;-65
2021/06/16 00:47:18;;;;;;;6.90;3.83;;;;;;;6.56;69.46;100046.40;1834750;77;24815;-65
2021/06/16 00:49:45;;;;;;;10.75;3.98;;;;;;;6.58;69.47;100053.67;1824522;77;21346;-65
2021/06/16 00:52:12;;;;;;;6.25;3.45;;;;;;;6.57;69.59;100054.58;1826751;77;20974;-65
2021/06/16 00:54:38;;;;;;;12.53;4.37;;;;;;;6.55;69.64;100060.23;1828034;77;20850;-65
2021/06/16 00:57:06;;;;;;;7.42;3.37;;;;;;;6.52;69.62;100059.02;1826293;77;20934;-65
2021/06/16 00:59:58;;;;;;;8.05;3.85;;;;;;;6.47;69.62;100067.78;1825064;77;21521;-65
2021/06/16 01:02:25;;;;;;;8.40;4.12;;;;;;;6.42;69.66;100064.90;1829613;77;20950;-65
2021/06/16 01:04:53;;;;;;;7.72;4.12;;;;;;;6.40;70.05;100064.92;1835279;77;20923;-65
2021/06/16 01:07:25;;;;;;;12.70;5.30;;;;;;;6.42;70.11;100070.09;1827938;77;20894;-65
2021/06/16 01:10:04;;;;;;;8.95;4.95;;;;;;;6.45;70.14;100070.86;1824212;77;21004;-65
2021/06/16 01:13:15;;;;;;;7.62;3.65;;;;;;;6.54;70.41;100070.22;1829201;77;21869;-65
2021/06/16 01:15:56;;;;;;;8.45;4.25;;;;;;;6.60;70.48;100067.47;1829450;77;21587;-66
2021/06/16 01:18:25;;;;;;;8.60;3.92;;;;;;;6.66;70.50;100066.00;1829856;77;20917;-65
2021/06/16 01:20:57;;;;;;;13.40;6.20;;;;;;;6.64;70.51;100073.00;1827215;77;20923;-65
2021/06/16 01:23:51;;;;;;;9.78;4.10;;;;;;;6.61;70.56;100070.45;1826228;77;20934;-65
2021/06/16 01:26:28;;;;;;;6.62;3.80;;;;;;;6.56;70.46;100068.45;1827058;77;21084;-65
2021/06/16 01:29:07;;;;;;;;;;;;;;;6.50;70.50;100062.52;1826321;77;20922;-65
2021/06/16 01:31:34;;;;;;;9.05;3.40;;;;;;;6.45;70.70;100068.27;1823365;77;20151;-65
2021/06/16 01:34:23;;;;;;;9.13;3.30;;;;;;;6.33;70.52;100063.80;1829609;77;20858;-64
2021/06/16 01:36:52;;;;;;;6.58;3.25;;;;;;;6.23;70.61;100072.27;1828806;77;20875;-65
2021/06/16 01:39:23;;;;;;;6.33;3.22;;;;;;;6.11;70.72;100072.13;1801375;77;42833;-65
2021/06/16 01:41:53;;;;;;;8.60;3.60;;;;;;;6.05;70.83;100079.59;1828408;76;21394;-65
2021/06/16 01:44:21;;;;;;;5.53;3.12;;;;;;;6.04;71.05;100081.76;1829135;77;20910;-66
2021/06/16 01:46:51;;;;;;;6.37;3.35;;;;;;;6.04;71.11;100081.76;1833702;77;20855;-65
2021/06/16 01:49:24;;;;;;;7.42;4.05;;;;;;;6.03;71.19;100078.77;1823750;77;20896;-65
2021/06/16 01:51:53;;;;;;;10.88;3.20;;;;;;;6.03;71.27;100078.77;1821316;77;21090;-65
2021/06/16 01:54:21;;;;;;;5.83;3.30;;;;;;;6.03;71.37;100076.17;1819902;77;20867;-65
2021/06/16 01:56:49;;;;;;;;;;;;;;;6.04;71.43;100083.05;1825082;77;21468;-65
2021/06/16 01:59:17;;;;;;;7.62;3.40;;;;;;;6.03;71.56;100078.77;1827939;77;20090;-65
2021/06/16 02:01:48;;;;;;;;;;;;;;;6.02;71.48;100073.19;1828055;77;20926;-65
2021/06/16 02:04:15;;;;;;;6.72;3.02;;;;;;;6.04;71.74;100072.69;1833362;77;21216;-65
2021/06/16 02:06:47;;;;;;;7.15;3.77;;;;;;;6.01;71.64;100075.34;1831190;77;21390;-65
2021/06/16 02:09:17;;;;;;;6.87;3.85;;;;;;;5.98;71.67;100072.83;1819621;77;20952;-65
2021/06/16 02:11:44;;;;;;;8.35;4.12;;;;;;;5.98;71.74;100070.24;1829514;77;20860;-65
2021/06/16 02:14:15;;;;;;;7.80;3.58;;;;;;;5.99;71.91;100065.48;1828218;77;20907;-65
2021/06/16 02:17:02;;;;;;;6.65;2.92;;;;;;;6.01;71.92;100070.16;1833810;77;21221;-64
2021/06/16 02:19:33;;;;;;;9.68;3.10;;;;;;;6.00;71.91;100072.36;1825727;77;20922;-65
2021/06/16 02:22:03;;;;;;;7.25;3.20;;;;;;;5.97;72.02;100065.95;1823903;77;20913;-65
2021/06/16 02:24:30;;;;;;;6.42;3.35;;;;;;;5.98;72.04;100074.58;1831340;77;20893;-65
2021/06/16 02:26:56;;;;;;;6.55;3.42;;;;;;;5.97;72.10;100066.41;1819535;77;20851;-65
2021/06/16 02:29:26;;;;;;;16.15;3.70;;;;;;;5.97;72.14;100069.00;1828048;77;21070;-65
2021/06/16 02:31:53;;;;;;;16.27;4.20;;;;;;;6.01;72.34;100071.46;1826830;77;20875;-65
2021/06/16 02:34:21;;;;;;;9.33;3.72;;;;;;;6.10;72.45;100065.66;1831686;77;20922;-65
2021/06/16 02:36:50;;;;;;;9.53;3.77;;;;;;;6.16;72.27;100065.51;1828725;77;28695;-65
2021/06/16 02:39:28;;;;;;;5.37;3.33;;;;;;;6.16;72.16;100071.99;1826607;77;20978;-65
2021/06/16 02:41:56;;;;;;;5.00;3.08;;;;;;;6.20;72.30;100065.86;1785041;79;21033;-65
2021/06/16 02:44:24;;;;;;;8.15;3.47;;;;;;;6.45;72.64;100070.86;1746624;80;20894;-65
2021/06/16 02:46:54;;;;;;;7.33;3.60;;;;;;;6.67;72.33;100071.63;1729580;82;20902;-65
2021/06/16 02:49:31;;;;;;;4.72;2.87;;;;;;;6.90;72.25;100074.45;1731540;81;20921;-65
2021/06/16 02:52:01;;;;;;;6.17;2.55;;;;;;;7.18;72.24;100068.52;1737012;80;21456;-65
2021/06/16 02:54:30;;;;;;;8.05;3.02;;;;;;;7.31;72.12;100076.38;1737396;81;21101;-65
2021/06/16 02:57:02;;;;;;;10.25;3.02;;;;;;;7.66;72.18;100071.90;1740913;81;21463;-65
2021/06/16 02:59:30;;;;;;;15.58;2.75;;;;;;;8.04;72.33;100072.50;1734647;80;20933;-66
2021/06/16 03:01:57;;;;;;;12.33;3.72;;;;;;;8.43;71.99;100076.03;1738250;81;20953;-66
2021/06/16 03:04:26;;;;;;;19.17;3.02;;;;;;;8.71;71.66;100075.53;1735884;81;21280;-65
2021/06/16 03:06:55;;;;;;;19.48;2.95;;;;;;;8.79;71.37;100061.38;1739644;80;21104;-65
2021/06/16 03:09:23;;;;;;;6.10;3.15;;;;;;;9.03;71.70;100072.71;1737624;81;21428;-66
2021/06/16 03:11:52;;;;;;;4.65;2.52;;;;;;;9.38;71.87;100076.64;1740518;81;21428;-65
2021/06/16 03:14:23;;;;;;;10.90;3.50;;;;;;;10.13;72.35;100067.25;1735232;80;20954;-65
2021/06/16 03:16:52;;;;;;;10.53;2.52;;;;;;;10.95;71.54;100063.44;1738495;80;21468;-65
2021/06/16 03:19:21;;;;;;;8.38;2.75;;;;;;;11.24;70.65;100083.09;1732750;81;21051;-66
2021/06/16 03:21:49;;;;;;;4.53;2.30;;;;;;;11.41;70.60;100072.72;1740666;80;21412;-66
2021/06/16 03:24:19;;;;;;;12.88;2.77;;;;;;;11.85;70.54;100080.33;1740893;80;20941;-66
2021/06/16 03:26:46;;;;;;;5.70;2.80;;;;;;;12.49;70.39;100079.45;1737467;80;20925;-66
2021/06/16 03:29:14;;;;;;;4.53;2.55;;;;;;;13.29;70.03;100079.36;1735162;81;21527;-66
2021/06/16 03:31:42;;;;;;;7.67;3.37;;;;;;;14.10;69.51;100081.02;1736673;81;21050;-64
2021/06/16 03:34:09;;;;;;;8.60;3.33;;;;;;;15.03;69.02;100075.72;1738650;82;20941;-66
2021/06/16 03:36:38;;;;;;;12.03;4.03;;;;;;;16.04;68.82;100077.34;1740841;81;20858;-63
2021/06/16 03:39:07;;;;;;;20.20;4.58;;;;;;;16.77;67.96;100082.23;1736629;81;20929;-64
2021/06/16 03:41:37;;;;;;;10.48;3.80;;;;;;;17.12;66.85;100074.58;1732623;81;21673;-64
2021/06/16 03:44:06;;;;;;;22.85;4.67;;;;;;;17.20;66.79;100077.53;1752337;80;21035;-65
2021/06/16 03:46:37;;;;;;;59.18;6.97;;;;;;;17.87;66.89;100073.77;1770779;80;20897;-65
2021/06/16 03:49:08;;;;;;;90.10;10.88;;;;;;;18.86;67.12;100059.42;1766570;79;21436;-65
2021/06/16 03:51:35;;;;;;;14.03;3.87;;;;;;;19.97;66.72;100062.17;1775164;80;21495;-65
2021/06/16 03:54:11;;;;;;;9.63;3.02;;;;;;;20.92;65.35;100062.27;1770701;79;20917;-64
2021/06/16 03:56:32;;;;;;;13.08;3.22;;;;;;;21.41;64.62;100063.39;1773797;79;21030;-64
2021/06/16 03:59:00;;;;;;;13.95;3.20;;;;;;;21.77;64.04;100063.80;1767041;79;20905;-64
2021/06/16 04:01:27;;;;;;;7.45;2.90;;;;;;;22.31;63.63;100063.33;1730647;81;20905;-65
2021/06/16 04:03:53;;;;;;;;;;;;;;;22.70;63.12;100069.14;1741583;81;20940;-64
2021/06/16 04:06:20;;;;;;;37.75;3.67;;;;;;;23.43;62.17;100068.89;1768276;79;20142;-65
2021/06/16 04:08:46;;;;;;;15.48;3.12;;;;;;;24.16;62.25;100064.08;1730687;81;21785;-65
2021/06/16 04:11:14;;;;;;;;;;;;;;;24.89;62.14;100067.88;1768794;79;20907;-65
2021/06/16 04:13:42;;;;;;;30.37;4.90;;;;;;;25.90;61.21;100059.23;1727896;81;20124;-65
2021/06/16 04:16:10;;;;;;;43.75;4.80;;;;;;;26.58;60.83;100065.36;1768757;79;20944;-65
2021/06/16 04:18:40;;;;;;;14.58;3.17;;;;;;;27.01;59.46;100064.98;1775038;80;20973;-65
2021/06/16 04:21:06;;;;;;;16.25;2.02;;;;;;;27.14;58.78;100064.95;1740940;81;21057;-65
2021/06/16 04:23:33;;;;;;;55.78;5.15;;;;;;;27.69;57.80;100061.44;1747445;80;20951;-65
2021/06/16 04:26:00;;;;;;;13.35;2.85;;;;;;;27.84;57.54;100058.38;1746954;80;21432;-66
2021/06/16 04:28:26;;;;;;;9.33;2.25;;;;;;;28.49;57.44;100066.52;1745728;80;21388;-65
2021/06/16 04:30:53;;;;;;;11.93;3.17;;;;;;;28.90;56.32;100058.59;1740982;80;21451;-65
2021/06/16 04:33:19;;;;;;;11.45;2.90;;;;;;;29.11;55.00;100058.73;1740785;80;21884;-65
2021/06/16 04:35:46;;;;;;;16.87;3.33;;;;;;;29.02;54.28;100055.80;1744492;80;21524;-65
2021/06/16 04:38:13;;;;;;;31.52;3.90;;;;;;;29.26;54.47;100058.73;1757735;79;21483;-66
2021/06/16 04:40:39;;;;;;;22.80;3.30;;;;;;;29.61;52.89;100065.21;1746256;80;20905;-65
2021/06/16 04:43:06;;;;;;;66.82;5.92;;;;;;;29.35;51.65;100063.02;1740843;80;20945;-65
2021/06/16 04:45:33;;;;;;;21.62;3.65;;;;;;;29.36;51.65;100058.47;1737158;81;21106;-65
2021/06/16 04:48:00;;;;;;;15.90;2.85;;;;;;;29.50;51.10;100065.69;1732251;81;20953;-66
2021/06/16 04:50:26;;;;;;;412.08;43.00;;;;;;;29.25;49.66;100058.94;1734638;81;20925;-65
2021/06/16 04:52:53;;;;;;;212.80;18.82;;;;;;;28.85;48.97;100069.05;1730355;81;20965;-66
2021/06/16 04:55:20;;;;;;;29.92;3.83;;;;;;;28.32;48.96;100064.44;1736185;82;21388;-65
2021/06/16 04:57:46;;;;;;;90.77;10.65;;;;;;;28.29;48.84;100063.97;1733600;81;21819;-65
2021/06/16 05:00:14;;;;;;;58.10;8.38;;;;;;;28.38;47.98;100067.42;1733955;81;20902;-65
2021/06/16 05:02:41;;;;;;;24.07;3.65;;;;;;;28.32;48.02;100072.50;1719901;81;21405;-65
2021/06/16 05:05:09;;;;;;;25.25;4.80;;;;;;;28.15;46.31;100062.89;1758014;79;21442;-65
2021/06/16 05:07:37;;;;;;;23.32;4.10;;;;;;;27.84;46.62;100067.78;1758110;79;20966;-66
2021/06/16 05:10:06;;;;;;;94.35;9.50;;;;;;;27.93;46.63;100070.41;1758909;79;21047;-66
2021/06/16 05:12:33;;;;;;;194.57;17.55;;;;;;;28.06;46.44;100071.99;1762116;79;21504;-65
2021/06/16 05:15:00;;;;;;;57.35;6.42;;;;;;;28.17;45.59;100068.89;1757063;79;21052;-64
2021/06/16 05:17:27;;;;;;;21.55;3.72;;;;;;;28.30;45.36;100076.38;1763612;79;20961;-65
2021/06/16 05:19:57;;;;;;;21.97;3.47;;;;;;;28.10;45.12;100070.64;1759526;80;20907;-65
2021/06/16 05:22:25;;;;;;;9.48;2.27;;;;;;;28.22;45.53;100066.52;1757145;80;22093;-65
2021/06/16 05:24:52;;;;;;;18.05;3.10;;;;;;;28.52;43.17;100072.05;1761841;79;20917;-65
2021/06/16 05:27:19;;;;;;;53.20;7.30;;;;;;;27.97;44.16;100071.72;1755838;79;20908;-65
2021/06/16 05:29:46;;;;;;;31.17;4.78;;;;;;;28.00;43.68;100074.87;1734637;80;21017;-65
2021/06/16 05:32:13;;;;;;;34.00;4.83;;;;;;;27.95;43.46;100073.73;1757305;80;20961;-65
2021/06/16 05:34:40;;;;;;;16.00;2.92;;;;;;;28.02;43.42;100076.05;1757302;79;21774;-65
2021/06/16 05:37:07;;;;;;;17.12;2.75;;;;;;;27.78;41.55;100079.16;1757497;80;21437;-65
2021/06/16 05:39:35;;;;;;;50.78;5.15;;;;;;;27.23;41.95;100081.40;1760624;79;21464;-65
2021/06/16 05:42:03;;;;;;;20.60;2.77;;;;;;;26.44;40.48;100086.44;1758889;80;20936;-65
2021/06/16 05:44:29;;;;;;;14.18;1.85;;;;;;;25.80;41.48;100095.97;1773718;79;20913;-64
2021/06/16 05:46:56;;;;;;;15.70;3.30;;;;;;;25.36;40.21;100100.11;1787442;78;21074;-64
2021/06/16 05:49:23;;;;;;;19.05;3.10;;;;;;;25.20;41.34;100099.50;1786056;79;20912;-63
2021/06/16 05:51:49;;;;;;;72.42;7.28;;;;;;;25.34;41.52;100103.43;1788420;78;20942;-64
2021/06/16 05:54:16;;;;;;;29.67;5.78;;;;;;;25.46;41.42;100096.83;1772624;79;21425;-64
2021/06/16 05:56:43;;;;;;;8.63;2.08;;;;;;;25.66;41.34;100094.75;1772387;79;20888;-64
2021/06/16 05:59:09;;;;;;;11.48;2.50;;;;;;;25.31;37.96;100099.23;1778270;79;21093;-64
2021/06/16 06:01:36;;;;;;;50.10;5.95;;;;;;;24.30;39.34;100104.91;1773387;79;20944;-64
2021/06/16 06:04:06;;;;;;;12.23;2.62;;;;;;;24.23;40.62;100102.52;1766067;79;20933;-64
2021/06/16 06:06:36;;;;;;;14.38;2.72;;;;;;;24.45;40.68;100101.73;1769852;79;21051;-64
2021/06/16 06:09:06;;;;;;;11.12;2.27;;;;;;;24.56;40.11;100110.84;1770304;79;20991;-65
2021/06/16 06:11:37;;;;;;;7.33;2.08;;;;;;;24.23;39.63;100111.85;1775104;79;21034;-64
2021/06/16 06:14:05;;;;;;;9.33;2.05;;;;;;;23.45;38.75;100109.56;1776671;79;21506;-64
2021/06/16 06:16:31;;;;;;;14.07;2.12;;;;;;;22.92;37.72;100107.42;1780659;79;21554;-63
2021/06/16 06:18:58;;;;;;;73.72;9.20;;;;;;;22.69;39.59;100114.05;1769528;79;21052;-64
2021/06/16 06:21:32;;;;;;;10.80;2.15;;;;;;;22.66;39.08;100112.97;1782068;79;20959;-64
2021/06/16 06:24:00;;;;;;;11.00;2.08;;;;;;;22.83;39.61;100110.95;1763975;79;21026;-64
2021/06/16 06:26:27;;;;;;;16.32;3.08;;;;;;;22.78;38.98;100113.19;1771026;79;20909;-64
2021/06/16 06:28:54;;;;;;;23.50;4.15;;;;;;;22.50;39.25;100122.36;1758210;80;20929;-64
2021/06/16 06:31:21;;;;;;;16.70;3.52;;;;;;;22.90;40.49;100120.03;1778740;79;20952;-63
2021/06/16 06:33:47;;;;;;;122.45;18.85;;;;;;;23.54;40.24;100115.00;1769243;79;20973;-64
2021/06/16 06:36:14;;;;;;;110.25;15.40;;;;;;;24.25;40.50;100111.69;1748992;80;21078;-63
2021/06/16 06:38:43;;;;;;;128.60;19.57;;;;;;;24.46;39.70;100124.78;1770941;79;20893;-64
2021/06/16 06:41:10;;;;;;;11.85;3.35;;;;;;;24.87;39.89;100125.12;1772366;79;20925;-64
2021/06/16 06:43:37;;;;;;;3.30;1.67;;;;;;;24.93;39.25;100121.85;1783663;78;21046;-64
2021/06/16 06:46:04;;;;;;;16.85;2.95;;;;;;;24.96;38.66;100116.20;1775402;78;21984;-64
2021/06/16 06:48:30;;;;;;;9.00;2.47;;;;;;;24.89;37.54;100119.13;1776663;79;21102;-64
2021/06/16 06:50:58;;;;;;;11.65;2.37;;;;;;;24.32;38.48;100121.61;1778549;79;21410;-65
2021/06/16 06:53:25;;;;;;;28.92;4.22;;;;;;;24.32;38.69;100126.95;1776702;79;21570;-64
2021/06/16 06:55:52;;;;;;;11.70;2.45;;;;;;;24.59;38.96;100122.58;1754125;79;20916;-65
2021/06/16 06:58:19;;;;;;;13.62;2.87;;;;;;;24.90;37.62;100124.80;1774788;79;20940;-64
2021/06/16 07:00:45;;;;;;;26.97;4.87;;;;;;;24.59;38.47;100119.91;1748038;80;21066;-64
2021/06/16 07:03:12;;;;;;;6.62;1.60;;;;;;;24.87;37.82;100113.10;1784141;78;20920;-64
2021/06/16 07:05:40;;;;;;;6.00;1.80;;;;;;;24.14;35.99;100118.07;1783524;78;20996;-64
2021/06/16 07:08:07;;;;;;;15.13;2.42;;;;;;;23.68;37.57;100127.84;1786549;78;21503;-64
2021/06/16 07:10:34;;;;;;;9.98;2.10;;;;;;;23.93;38.23;100123.69;1785159;78;20960;-64
2021/06/16 07:13:04;;;;;;;11.75;2.00;;;;;;;23.74;36.30;100116.62;1785745;79;21784;-63
2021/06/16 07:15:32;;;;;;;7.20;1.72;;;;;;;23.20;36.85;100119.53;1785322;78;20981;-64
2021/06/16 07:17:58;;;;;;;6.45;1.70;;;;;;;23.01;37.57;100125.23;1780162;79;20965;-64
2021/06/16 07:20:26;;;;;;;9.20;1.90;;;;;;;23.18;37.14;100121.48;1785712;78;20934;-63
2021/06/16 07:22:53;;;;;;;7.72;1.92;;;;;;;22.80;36.90;100119.22;1781115;79;20905;-65
2021/06/16 07:25:20;;;;;;;6.35;1.60;;;;;;;22.52;37.18;100128.89;1783698;78;21091;-64
2021/06/16 07:27:47;;;;;;;7.87;1.90;;;;;;;22.56;37.00;100127.63;1778936;78;21483;-63
2021/06/16 07:30:15;;;;;;;9.20;1.98;;;;;;;22.54;37.85;100131.73;1786025;79;20884;-64
2021/06/16 07:32:43;;;;;;;7.30;1.80;;;;;;;21.80;36.62;100135.29;1788390;78;20969;-64
2021/06/16 07:35:13;;;;;;;8.68;2.00;;;;;;;21.46;38.16;100132.91;1780327;78;20933;-63
2021/06/16 07:37:40;;;;;;;14.18;2.90;;;;;;;21.59;38.56;100138.86;1782896;78;21239;-63
2021/06/16 07:40:11;;;;;;;6.20;1.95;;;;;;;22.03;38.81;100134.09;1787059;78;20901;-63
2021/06/16 07:42:39;;;;;;;13.10;2.77;;;;;;;22.17;38.75;100134.69;1784727;79;21786;-64
2021/06/16 07:45:08;;;;;;;45.52;5.10;;;;;;;22.19;39.00;100132.77;1786920;78;21521;-63
2021/06/16 07:47:36;;;;;;;23.30;3.62;;;;;;;22.39;38.96;100137.13;1784859;78;20936;-64
2021/06/16 07:50:05;;;;;;;10.78;2.42;;;;;;;22.49;38.02;100147.30;1779775;79;21148;-64
2021/06/16 07:52:32;;;;;;;4.28;1.70;;;;;;;21.44;37.66;100148.97;1783605;79;21475;-63
2021/06/16 07:54:58;;;;;;;5.12;1.82;;;;;;;20.67;38.29;100147.94;1782999;79;20912;-63
2021/06/16 07:57:25;;;;;;;21.45;3.05;;;;;;;20.51;39.43;100146.16;1785976;79;20897;-63
2021/06/16 07:59:52;;;;;;;26.33;3.90;;;;;;;20.37;39.33;100150.42;1787547;78;20956;-63
2021/06/16 08:02:18;;;;;;;190.07;28.75;;;;;;;20.61;39.68;100149.75;1778982;78;21874;-63
2021/06/16 08:04:46;;;;;;;52.20;5.45;;;;;;;20.74;40.10;100141.63;1785609;79;27907;-63
2021/06/16 08:07:16;;;;;;;47.25;5.70;;;;;;;20.72;39.83;100147.05;1785461;78;20935;-63
2021/06/16 08:09:49;;;;;;;64.03;8.68;;;;;;;20.64;40.07;100149.52;1784047;79;21476;-63
2021/06/16 08:12:16;;;;;;;149.62;19.25;;;;;;;20.52;40.22;100153.13;1786385;79;20882;-63
2021/06/16 08:14:44;;;;;;;269.48;38.58;;;;;;;20.49;40.55;100150.73;1782625;79;21003;-63
2021/06/16 08:17:24;;;;;;;20.40;3.22;;;;;;;20.89;41.03;100146.13;1783331;78;20951;-63
2021/06/16 08:19:58;;;;;;;13.53;2.85;;;;;;;20.70;40.26;100170.23;1785694;79;21482;-63
2021/06/16 08:22:33;;;;;;;10.28;2.70;;;;;;;19.76;40.23;100166.27;1761841;79;21507;-64
2021/06/16 08:25:00;;;;;;;9.35;2.65;;;;;;;19.28;40.63;100165.60;1777266;79;20904;-63
2021/06/16 08:27:26;;;;;;;6.15;2.12;;;;;;;19.03;41.35;100161.33;1784888;78;21942;-63
2021/06/16 08:29:53;;;;;;;5.65;1.75;;;;;;;19.28;41.38;100163.80;1787319;78;20920;-63
2021/06/16 08:32:27;;;;;;;3.33;1.77;;;;;;;19.43;41.58;100157.30;1785593;79;20956;-63
2021/06/16 08:35:00;;;;;;;88.55;6.70;;;;;;;19.88;41.68;100160.03;1783766;78;20863;-63
2021/06/16 08:37:35;;;;;;;6.67;1.70;;;;;;;19.97;41.71;100161.55;1779253;79;20890;-63
2021/06/16 08:40:04;;;;;;;4.85;1.85;;;;;;;20.23;41.71;100159.00;1785281;78;21043;-63
2021/06/16 08:42:38;;;;;;;7.60;1.85;;;;;;;20.52;41.65;100162.42;1787315;79;21475;-63
2021/06/16 08:45:22;;;;;;;22.00;3.67;;;;;;;20.69;41.80;100155.27;1745667;80;21557;-62
2021/06/16 08:47:54;;;;;;;36.30;11.78;;;;;;;20.76;41.52;100157.78;1728670;82;20921;-62
2021/06/16 08:50:21;;;;;;;58.00;7.35;;;;;;;20.95;42.24;100150.95;1751012;80;20923;-63
2021/06/16 08:52:49;;;;;;;10.18;2.15;;;;;;;21.30;41.50;100155.92;1747489;80;21122;-62
2021/06/16 08:55:23;;;;;;;6.58;1.90;;;;;;;21.12;41.48;100159.66;1736794;80;20896;-62
2021/06/16 08:57:52;;;;;;;10.15;2.90;;;;;;;20.81;40.85;100157.88;1733014;81;20988;-62
2021/06/16 09:00:21;;;;;;;16.70;2.98;;;;;;;20.56;41.50;100155.45;1735723;81;20906;-63
2021/06/16 09:02:48;;;;;;;8.85;2.58;;;;;;;20.67;41.65;100157.23;1737531;81;21444;-62
2021/06/16 09:05:15;;;;;;;;;;;;;;;20.74;41.98;100157.06;1737846;81;21492;-63
2021/06/16 09:07:44;;;;;;;74.62;11.22;;;;;;;20.72;41.67;100162.97;1735493;81;20120;-62
2021/06/16 09:10:18;;;;;;;90.12;15.00;;;;;;;21.08;42.45;100158.22;1727785;81;20969;-63
2021/06/16 09:12:59;;;;;;;28.62;8.30;;;;;;;21.60;42.60;100152.97;1732194;81;20929;-62
2021/06/16 09:15:29;;;;;;;23.92;5.30;;;;;;;21.94;42.18;100145.55;1736794;81;20945;-62
2021/06/16 09:18:08;;;;;;;18.25;3.35;;;;;;;22.33;42.63;100153.65;1716103;82;21800;-62
2021/06/16 09:20:44;;;;;;;5.28;2.10;;;;;;;22.65;42.13;100155.22;1733820;81;21436;-63
2021/06/16 09:23:25;;;;;;;12.37;1.85;;;;;;;22.10;40.32;100155.67;1733070;81;21500;-63
2021/06/16 09:26:14;;;;;;;5.37;1.77;;;;;;;21.34;40.98;100147.19;1732317;81;20962;-63
2021/06/16 09:28:50;;;;;;;3.20;1.70;;;;;;;21.12;41.65;100159.66;1738456;81;20922;-63
2021/06/16 09:31:20;;;;;;;6.25;1.60;;;;;;;20.83;41.35;100155.94;1747511;81;21523;-62
2021/06/16 09:33:48;;;;;;;4.80;1.70;;;;;;;20.55;42.03;100160.87;1751424;80;20907;-63
2021/06/16 09:36:18;;;;;;;4.37;1.87;;;;;;;20.14;41.58;100162.41;1726473;81;20914;-63
2021/06/16 09:38:47;;;;;;;4.37;1.80;;;;;;;20.10;42.46;100154.32;1717900;81;20919;-63
2021/06/16 09:41:20;;;;;;;6.15;1.57;;;;;;;20.02;41.64;100152.77;1718300;82;21092;-62
2021/06/16 09:43:49;;;;;;;4.62;1.80;;;;;;;19.71;41.93;100155.19;1719280;81;21007;-62
2021/06/16 09:46:16;;;;;;;5.30;1.92;;;;;;;19.83;42.54;100148.95;1742985;80;20959;-62
2021/06/16 09:48:46;;;;;;;4.55;2.15;;;;;;;20.23;42.55;100148.40;1747999;80;20956;-62
2021/06/16 09:51:23;;;;;;;5.22;1.95;;;;;;;20.51;42.44;100156.77;1748056;81;20948;-62
2021/06/16 09:54:15;;;;;;;4.40;1.92;;;;;;;20.67;42.19;100150.59;1745767;81;20996;-63
2021/06/16 09:56:58;;;;;;;3.90;1.57;;;;;;;20.64;42.28;100149.52;1759428;80;21435;-63
2021/06/16 09:59:45;;;;;;;5.20;1.85;;;;;;;20.71;42.19;100148.03;1768520;79;21004;-63
2021/06/16 10:02:23;;;;;;;6.55;1.75;;;;;;;20.62;41.84;100151.45;1768426;79;21513;-62
2021/06/16 10:04:59;;;;;;;2.95;1.22;;;;;;;20.41;42.01;100142.56;1771240;79;20916;-62
2021/06/16 10:07:28;;;;;;;12.85;2.00;;;;;;;20.58;42.04;100147.34;1774181;79;20878;-63
2021/06/16 10:10:10;;;;;;;6.17;1.67;;;;;;;20.52;41.79;100139.88;1773715;79;21097;-62
2021/06/16 10:12:43;;;;;;;32.38;4.45;;;;;;;20.39;42.21;100134.75;1765380;79;20865;-64
2021/06/16 10:15:14;;;;;;;7.12;1.92;;;;;;;20.62;42.57;100141.33;1767190;79;20944;-63
2021/06/16 10:17:42;;;;;;;3.85;1.80;;;;;;;20.58;42.32;100136.73;1767250;79;21957;-63
2021/06/16 10:20:11;;;;;;;3.47;1.35;;;;;;;20.44;42.51;100131.20;1765116;80;20981;-64
2021/06/16 10:22:37;;;;;;;78.07;8.45;;;;;;;20.45;42.27;100141.36;1771177;79;21007;-64
2021/06/16 10:25:06;;;;;;;7.95;1.87;;;;;;;20.23;42.45;100137.80;1770406;79;20961;-64
2021/06/16 10:27:37;;;;;;;5.47;2.00;;;;;;;20.26;42.54;100134.89;1769022;79;20933;-64
2021/06/16 10:30:12;;;;;;;10.82;2.12;;;;;;;20.39;42.82;100131.23;1774761;79;21007;-63
2021/06/16 10:32:41;;;;;;;2.67;1.40;;;;;;;20.18;42.25;100128.04;1771293;79;20906;-64
2021/06/16 10:35:15;;;;;;;14.35;2.58;;;;;;;20.30;42.54;100130.17;1764657;79;21792;-63
2021/06/16 10:37:45;;;;;;;5.50;1.90;;;;;;;20.31;42.67;100130.06;1766222;79;20933;-63
2021/06/16 10:40:24;;;;;;;2.98;1.40;;;;;;;20.57;43.14;100128.44;1765222;79;21135;-62
2021/06/16 10:43:09;;;;;;;5.25;1.90;;;;;;;20.72;42.66;100128.47;1769284;79;20893;-63
2021/06/16 10:45:41;;;;;;;2.93;1.47;;;;;;;20.66;42.65;100128.98;1773537;79;21504;-63
2021/06/16 10:48:10;;;;;;;10.98;1.62;;;;;;;20.50;42.27;100128.53;1779998;79;21351;-63
2021/06/16 10:50:53;;;;;;;6.37;1.90;;;;;;;20.66;42.76;100123.69;1766476;79;20951;-63
2021/06/16 10:53:26;;;;;;;13.85;2.35;;;;;;;20.78;42.24;100125.34;1773109;79;20929;-63
2021/06/16 10:55:58;;;;;;;9.00;2.02;;;;;;;20.61;42.42;100123.22;1750647;80;20927;-63
2021/06/16 10:58:34;;;;;;;6.70;1.80;;;;;;;20.54;42.37;100128.69;1769734;79;20928;-63
2021/06/16 11:01:19;;;;;;;17.67;1.80;;;;;;;20.65;42.25;100124.66;1769779;79;22034;-63
2021/06/16 11:03:54;;;;;;;18.87;2.67;;;;;;;20.61;42.35;100123.22;1775210;79;20921;-64
2021/06/16 11:06:37;;;;;;;14.10;3.20;;;;;;;20.59;42.62;100125.18;1766585;79;20916;-63
2021/06/16 11:09:10;;;;;;;54.48;9.10;;;;;;;20.88;42.74;100129.86;1771082;79;20939;-64
2021/06/16 11:12:01;;;;;;;9.45;2.15;;;;;;;21.01;42.81;100133.17;1770831;79;20933;-63
2021/06/16 11:14:39;;;;;;;5.00;1.60;;;;;;;21.11;41.92;100136.72;1771950;79;21033;-63
2021/06/16 11:17:28;;;;;;;3.55;1.60;;;;;;;20.95;42.30;100132.37;1773217;79;20918;-63
2021/06/16 11:20:10;;;;;;;9.63;2.05;;;;;;;20.65;41.92;100129.97;1772290;79;20909;-64
2021/06/16 11:22:41;;;;;;;5.65;2.02;;;;;;;20.52;42.51;100139.88;1770252;79;20925;-63
2021/06/16 11:25:23;;;;;;;5.28;2.02;;;;;;;20.54;42.70;100137.98;1766619;79;20933;-64
2021/06/16 11:28:15;;;;;;;7.80;1.77;;;;;;;20.49;41.69;100138.80;1768650;79;22566;-64
2021/06/16 11:30:58;;;;;;;7.72;2.08;;;;;;;20.28;42.53;100130.31;1768453;79;20932;-64
2021/06/16 11:33:30;;;;;;;5.33;2.05;;;;;;;20.29;42.42;100136.45;1770135;79;20895;-64
2021/06/16 11:36:07;;;;;;;94.77;18.67;;;;;;;20.59;42.99;100124.34;1769263;79;20928;-63
2021/06/16 11:38:55;;;;;;;11.05;3.70;;;;;;;20.64;42.43;100117.69;1779784;79;20932;-63